| Date | Time | Temp. (oF) | Dew Point (oF) | Rel. Hum. (%) | Press. (in.) | Wind Dir. | Wind Speed (mph) | Hourly Rainfall (in.) |
|
|---|---|---|---|---|---|---|---|---|---|
| 1 | 01/23 | 00:00 | 26 | 26 | 100 | 30.38 | ENE | 2 | 0.00 |
| 2 | 01/22 | 23:00 | 26 | 26 | 100 | 30.40 | NNE | 2 | 0.00 |
| 3 | 01/22 | 22:00 | 25 | 24 | 99 | 30.41 | ESE | 5 | 0.00 |
| 4 | 01/22 | 21:00 | 26 | 25 | 96 | 30.44 | ENE | 3 | 0.00 |
| 5 | 01/22 | 20:00 | 26 | 24 | 94 | 30.45 | E | 3 | 0.00 |
| 6 | 01/22 | 19:00 | 25 | 22 | 90 | 30.45 | ESE | 4 | 0.00 |
| 7 | 01/22 | 18:00 | 25 | 21 | 88 | 30.45 | ENE | 3 | 0.00 |
| 8 | 01/22 | 17:00 | 25 | 21 | 87 | 30.44 | E | 4 | 0.00 |
| 9 | 01/22 | 16:00 | 26 | 21 | 83 | 30.45 | E | 3 | 0.00 |
| 10 | 01/22 | 15:00 | 25 | 19 | 80 | 30.45 | ESE | 10 | 0.00 |
| 11 | 01/22 | 14:00 | 25 | 19 | 78 | 30.46 | E | 5 | 0.00 |
| 12 | 01/22 | 13:00 | 25 | 19 | 78 | 30.47 | ESE | 4 | 0.00 |
| 13 | 01/22 | 12:00 | 24 | 18 | 78 | 30.49 | E | 4 | 0.00 |
| 14 | 01/22 | 11:00 | 23 | 16 | 75 | 30.51 | ESE | 6 | 0.00 |
| 15 | 01/22 | 10:00 | 21 | 14 | 76 | 30.51 | ENE | 6 | 0.00 |
| 16 | 01/22 | 09:00 | 21 | 16 | 81 | 30.50 | ESE | 6 | 0.00 |
| 17 | 01/22 | 08:00 | 20 | 15 | 81 | 30.47 | E | 9 | 0.00 |
| 18 | 01/22 | 07:00 | 21 | 18 | 88 | 30.46 | ESE | 10 | 0.00 |
| 19 | 01/22 | 06:00 | 22 | 18 | 85 | 30.43 | NE | 5 | 0.00 |
| 20 | 01/22 | 05:00 | 23 | 20 | 89 | 30.41 | ESE | 3 | 0.00 |
| 21 | 01/22 | 04:00 | 23 | 19 | 87 | 30.41 | NNE | 3 | 0.00 |
| 22 | 01/22 | 03:00 | 24 | 20 | 88 | 30.40 | E | 5 | 0.00 |
| 23 | 01/22 | 02:00 | 23 | 20 | 91 | 30.37 | E | 1 | 0.00 |
| 24 | 01/22 | 01:00 | 23 | 21 | 92 | 30.35 | NNE | 0 | 0.00 |